Latest Weather Observations for Longerenong

IDV60801

Issued at 7:32 pm EST Sunday 20 August 2017 (issued every 30 minutes, with the page automatically refreshed every 10 minutes)

About weather observations | Map of weather stations | Latest weather observations for VIC | Other Formats
Station Details ID: 079028 Name: LONGERENONG Lat: -36.67 Lon: 142.30 Height: 133.0 m
Data from the previous 72 hours. | See also: Recent months at Longerenong
Date/Time
EST
Temp
°C
App
Temp
°C
Dew
Point
°C
Rel
Hum
%
Delta-T
°C
Wind Press
QNH
hPa
Press
MSL
hPa
Rain since
9am
mm
Dir  Spd
km/h
Gust
km/h
Spd
kts
Gust
kts
20/07:30pm 6.8 4.2 3.4 79 1.4 ENE 6 9 3 5 - - 0.0
20/07:00pm 7.2 4.7 3.6 78 1.5 ENE 6 9 3 5 - - 0.0
20/06:30pm 7.8 5.2 3.3 73 1.9 ENE 6 9 3 5 - - 0.0
20/06:00pm 8.4 5.7 3.5 71 2.1 NE 7 9 4 5 - - 0.0
20/05:30pm 9.0 6.3 3.6 69 2.4 NE 7 13 4 7 - - 0.0
20/05:00pm 9.4 6.6 3.2 65 2.7 NE 7 13 4 7 - - 0.0
20/04:30pm 10.2 6.7 3.3 62 3.0 ENE 11 17 6 9 - - 0.0
20/04:00pm 10.0 6.8 2.8 61 3.1 ENE 9 15 5 8 - - 0.0
20/03:30pm 10.1 6.9 2.9 61 3.1 NNE 9 19 5 10 - - 0.0
20/03:00pm 9.9 6.3 2.7 61 3.1 NNE 11 19 6 10 - - 0.0
20/02:30pm 10.5 7.4 3.8 63 3.0 NE 9 19 5 10 - - 0.0
20/02:00pm 10.3 6.7 2.9 60 3.2 NE 11 17 6 9 - - 0.0
20/01:30pm 10.0 6.8 2.8 61 3.1 NE 9 13 5 7 - - 0.0
20/01:00pm 9.4 6.1 2.7 63 2.9 NE 9 13 5 7 - - 0.0
20/12:30pm 9.5 6.7 3.3 65 2.7 NE 7 15 4 8 - - 0.0
20/12:00pm 9.4 5.8 2.9 64 2.8 NE 11 15 6 8 - - 0.0
20/11:30am 8.9 5.9 4.1 72 2.1 ENE 9 13 5 7 - - 0.0
20/11:00am 8.1 5.5 4.3 77 1.7 NE 7 11 4 6 - - 0.0
20/10:30am 7.5 5.0 5.0 84 1.1 ENE 7 11 4 6 - - 0.0
20/10:00am 5.6 3.3 4.7 94 0.4 E 6 7 3 4 - - 0.0
20/09:30am 4.3 1.6 3.7 96 0.3 E 7 11 4 6 - - 0.0
20/09:00am 2.1 -0.7 1.8 98 0.1 E 6 9 3 5 - - 0.0
20/08:30am 1.5 -1.4 1.2 98 0.1 E 6 9 3 5 - - 0.0
20/08:00am 1.0 -2.2 0.9 99 0.0 S 7 9 4 5 - - 0.0
20/07:30am -1.3 -4.6 -1.6 98 0.0 SSW 6 6 3 3 - - 0.0
20/07:00am -1.3 -4.6 -1.6 98 0.0 SSW 6 7 3 4 - - 0.0
20/06:30am -0.5 -3.7 -0.6 99 0.0 SSW 6 7 3 4 - - 0.0
20/06:00am -0.4 -3.2 -0.5 99 0.0 SSW 4 6 2 3 - - 0.0
20/05:30am -1.1 -4.0 -1.4 98 0.1 SSW 4 4 2 2 - - 0.0
20/05:00am -0.7 -3.6 -1.0 98 0.1 SSW 4 6 2 3 - - 0.0
20/04:30am -1.6 -4.2 -1.9 98 0.0 SSW 2 2 1 1 - - 0.0
20/04:00am -1.1 -4.0 -1.4 98 0.1 SSW 4 4 2 2 - - 0.0
20/03:30am 0.2 -2.6 -0.1 98 0.1 SSW 4 4 2 2 - - 0.0
20/03:00am -0.1 -3.5 -0.4 98 0.1 SSW 7 7 4 4 - - 0.0
20/02:30am -0.4 -3.6 -0.8 97 0.1 SSW 6 6 3 3 - - 0.0
20/02:00am -0.2 -2.6 -0.6 97 0.1 SSW 2 4 1 2 - - 0.0
20/01:30am 0.4 -2.3 0.0 97 0.1 SSW 4 6 2 3 - - 0.0
20/01:00am 0.1 -2.3 -0.5 96 0.2 SSW 2 4 1 2 - - 0.0
20/12:30am 0.1 -2.7 -0.5 96 0.2 SSW 4 4 2 2 - - 0.0
20/12:00am 0.9 -1.8 0.3 96 0.2 SSW 4 6 2 3 - - 0.0
 
Date/Time
EST
Temp
°C
App
Temp
°C
Dew
Point
°C
Rel
Hum
%
Delta-T
°C
Wind Press
QNH
hPa
Press
MSL
hPa
Rain since
9am
mm
Dir  Spd
km/h
Gust
km/h
Spd
kts
Gust
kts
19/11:30pm 1.9 -1.2 1.3 96 0.2 SSW 7 7 4 4 - - 0.0
19/11:00pm 1.1 -1.2 0.2 94 0.3 SSW 2 4 1 2 - - 0.0
19/10:30pm 2.2 -0.3 1.3 94 0.3 SSW 4 6 2 3 - - 0.0
19/10:00pm 2.6 0.5 1.4 92 0.5 SW 2 4 1 2 - - 0.0
19/09:30pm 3.6 2.0 2.6 93 0.4 CALM 0 2 0 1 - - 0.0
19/09:00pm 3.7 1.4 2.7 93 0.4 WSW 4 4 2 2 - - 0.0
19/08:30pm 2.6 0.1 1.3 91 0.5 SSW 4 6 2 3 - - 0.0
19/08:00pm 3.4 1.7 1.8 89 0.6 CALM 0 0 0 0 - - 0.0
19/07:30pm 3.8 2.1 2.0 88 0.7 CALM 0 0 0 0 - - 0.0
19/07:00pm 5.5 3.9 2.7 82 1.2 CALM 0 2 0 1 - - 0.0
19/06:30pm 7.0 4.4 4.0 81 1.3 E 7 9 4 5 - - 0.0
19/06:00pm 6.9 4.2 3.9 81 1.3 ESE 7 11 4 6 - - 0.0
19/05:30pm 9.6 6.6 4.0 68 2.5 SE 9 15 5 8 - - 0.0
19/05:00pm 10.8 7.3 3.6 61 3.2 SSW 11 17 6 9 - - 0.0
19/04:30pm 11.4 7.1 3.4 58 3.5 SSW 15 20 8 11 - - 0.0
19/04:00pm 12.3 8.0 3.3 54 4.0 SW 15 26 8 14 - - 0.0
19/03:30pm 11.3 7.4 3.6 59 3.4 SSW 13 19 7 10 - - 0.0
19/03:00pm 11.3 7.6 2.3 54 3.9 SSW 11 17 6 9 - - 0.0
19/02:30pm 10.4 5.3 3.0 60 3.2 SSW 19 24 10 13 - - 0.0
19/02:00pm 11.2 6.8 2.8 56 3.7 SSW 15 24 8 13 - - 0.0
19/01:30pm 12.0 7.5 4.0 58 3.6 SSW 17 24 9 13 - - 0.0
19/01:00pm 11.1 7.2 3.2 58 3.5 SSW 13 20 7 11 - - 0.0
19/12:30pm 11.3 6.9 5.0 65 2.9 SSW 17 26 9 14 - - 0.0
19/12:00pm 9.3 5.1 3.9 69 2.4 SSW 15 20 8 11 - - 0.0
19/11:30am 9.2 4.7 4.4 72 2.1 S 17 24 9 13 - - 0.0
19/11:00am 9.4 5.5 5.4 76 1.8 SSW 15 20 8 11 - - 0.0
19/10:30am 8.8 5.1 6.1 83 1.2 SW 15 20 8 11 - - 0.0
19/10:00am 7.8 4.7 7.1 95 0.3 SW 13 17 7 9 - - 0.0
19/09:30am 6.2 4.0 6.1 99 0.0 SSW 7 11 4 6 - - 0.0
19/09:00am 4.3 2.3 4.3 100 0.0 SSW 4 6 2 3 - - 1.4
19/08:30am 2.4 0.0 2.3 99 0.0 SSW 4 6 2 3 - - 1.4
19/08:00am 1.1 -2.1 1.0 99 0.0 SW 7 9 4 5 - - 1.2
19/07:30am 0.8 -2.2 0.7 99 0.0 SW 6 7 3 4 - - 1.2
19/07:00am 0.9 -2.7 0.8 99 0.0 WSW 9 11 5 6 - - 1.2
19/06:30am 0.5 -2.6 0.4 99 0.0 SW 6 7 3 4 - - 1.2
19/06:00am 0.9 -2.3 0.8 99 0.0 SW 7 9 4 5 - - 1.2
19/05:30am 0.0 -2.8 -0.3 98 0.1 WSW 4 6 2 3 - - 1.2
19/05:00am 0.7 -1.2 0.4 98 0.1 CALM 0 0 0 0 - - 1.2
19/04:30am 1.0 -1.6 0.7 98 0.1 SW 4 6 2 3 - - 1.2
19/04:00am 1.8 -0.7 1.5 98 0.1 SSW 4 6 2 3 - - 1.2
19/03:30am 2.1 -0.4 1.8 98 0.1 SSW 4 6 2 3 - - 1.2
19/03:00am 1.9 -1.0 1.6 98 0.1 SW 6 7 3 4 - - 1.2
19/02:30am 2.7 -1.0 2.4 98 0.1 WSW 11 13 6 7 - - 1.2
19/02:00am 2.7 -1.0 2.4 98 0.1 SW 11 15 6 8 - - 1.2
19/01:30am 2.1 -1.7 1.8 98 0.1 WSW 11 13 6 7 - - 1.2
19/01:00am 2.5 -0.5 2.1 97 0.2 SW 7 11 4 6 - - 1.2
19/12:30am 2.7 -0.3 2.3 97 0.2 SW 7 9 4 5 - - 1.2
19/12:00am 2.5 -0.5 2.1 97 0.2 WSW 7 9 4 5 - - 1.2
 
Date/Time
EST
Temp
°C
App
Temp
°C
Dew
Point
°C
Rel
Hum
%
Delta-T
°C
Wind Press
QNH
hPa
Press
MSL
hPa
Rain since
9am
mm
Dir  Spd
km/h
Gust
km/h
Spd
kts
Gust
kts
18/11:30pm 2.9 0.2 2.5 97 0.2 WSW 6 7 3 4 - - 1.2
18/11:00pm 2.8 0.0 2.2 96 0.2 WSW 6 9 3 5 - - 1.2
18/10:30pm 3.0 -0.3 2.6 97 0.2 W 9 13 5 7 - - 1.2
18/10:00pm 2.7 -0.7 2.1 96 0.2 W 9 11 5 6 - - 1.0
18/09:30pm 2.7 -0.3 1.8 94 0.4 W 7 9 4 5 - - 1.0
18/09:00pm 3.6 0.3 2.7 94 0.4 W 9 13 5 7 - - 1.0
18/08:30pm 4.5 1.0 3.5 93 0.4 WSW 11 13 6 7 - - 1.0
18/08:00pm 4.6 0.7 3.4 92 0.5 W 13 17 7 9 - - 1.0
18/07:30pm 4.9 1.4 3.4 90 0.6 W 11 15 6 8 - - 1.0
18/07:00pm 5.7 1.6 4.2 90 0.6 WSW 15 19 8 10 - - 1.0
18/06:30pm 5.9 2.2 4.2 89 0.7 WSW 13 19 7 10 - - 1.0
18/06:00pm 6.8 1.7 4.3 84 1.1 WSW 20 30 11 16 - - 1.0
18/05:30pm 7.4 1.3 4.7 83 1.2 WSW 26 35 14 19 - - 0.6
18/05:00pm 8.3 3.3 4.7 78 1.6 SW 20 32 11 17 - - 0.6
18/04:55pm 8.1 2.4 4.7 79 1.5 SW 24 32 13 17 - - 0.6
18/04:36pm 8.3 0.9 4.1 75 1.8 SW 32 46 17 25 - - 0.6
18/04:30pm 9.5 2.6 4.7 72 2.2 SW 30 39 16 21 - - 0.6
18/04:03pm 7.9 -3.1 2.8 70 2.2 SW 50 69 27 37 - - 0.4
18/04:00pm 8.5 -1.8 2.5 66 2.5 WSW 46 69 25 37 - - 0.4
18/03:58pm 8.9 -1.5 1.8 61 3.0 SW 46 69 25 37 - - 0.4
18/03:33pm 10.8 3.9 4.5 65 2.8 WSW 30 48 16 26 - - 0.4
18/03:30pm 10.7 4.2 4.6 66 2.8 WSW 28 43 15 23 - - 0.4
18/03:00pm 10.5 3.5 4.2 65 2.8 SW 30 43 16 23 - - 0.4
18/02:30pm 11.8 4.4 5.0 63 3.1 WSW 33 57 18 31 - - 0.4
18/02:22pm 11.2 2.5 4.0 61 3.2 WSW 39 57 21 31 - - 0.4
18/02:00pm 11.4 3.1 4.2 61 3.3 WSW 37 52 20 28 - - 0.4
18/01:44pm 10.5 3.1 5.1 69 2.5 WSW 33 54 18 29 - - 0.4
18/01:30pm 10.2 1.3 5.2 71 2.3 WSW 41 54 22 29 - - 0.4
18/01:00pm 11.3 3.7 5.8 69 2.6 WSW 35 50 19 27 - - 0.4
18/12:30pm 10.4 4.9 5.8 73 2.1 WSW 24 37 13 20 - - 0.4
18/12:00pm 9.6 4.1 6.0 78 1.7 W 24 35 13 19 - - 0.4
18/11:30am 8.8 1.9 4.8 76 1.8 WSW 30 43 16 23 - - 0.4
18/11:00am 7.9 0.4 4.5 79 1.5 WSW 33 52 18 28 - - 0.4
18/10:49am 9.2 1.5 5.4 77 1.7 WSW 35 63 19 34 - - 0.2
18/10:30am 9.4 3.2 6.1 80 1.5 W 28 39 15 21 - - 0.2
18/10:00am 8.7 3.7 6.5 86 1.0 W 22 30 12 16 - - 0.2
18/09:31am 6.4 -0.5 4.4 87 0.9 WSW 30 48 16 26 - - 0.2
18/09:30am 6.4 -0.9 4.4 87 0.9 SW 32 48 17 26 - - 0.2
18/09:16am 7.0 0.0 4.1 82 1.3 WSW 30 48 16 26 - - 0.0
18/09:00am 7.4 0.4 4.2 80 1.4 WSW 30 43 16 23 - - 2.2
18/08:30am 6.5 0.8 4.8 89 0.7 W 24 33 13 18 - - 2.2
18/08:00am 6.2 -0.8 4.2 87 0.9 W 30 37 16 20 - - 2.2
18/07:30am 5.5 0.0 4.2 91 0.6 W 22 28 12 15 - - 2.0
18/07:00am 5.0 0.5 4.0 93 0.4 W 17 24 9 13 - - 2.0
18/06:30am 5.1 0.2 4.1 93 0.4 WNW 19 24 10 13 - - 2.0
18/06:00am 5.0 0.5 4.0 93 0.4 WNW 17 22 9 12 - - 2.0
18/05:30am 5.4 0.3 4.2 92 0.5 W 20 28 11 15 - - 2.0
18/05:00am 5.5 0.5 4.5 93 0.4 WNW 20 28 11 15 - - 2.0
18/04:30am 5.4 1.7 4.5 94 0.4 W 13 22 7 12 - - 1.8
18/04:00am 5.8 2.6 4.9 94 0.4 W 11 17 6 9 - - 1.8
18/03:30am 5.9 1.5 4.9 93 0.4 W 17 22 9 12 - - 1.8
18/03:00am 5.9 0.9 4.5 91 0.6 WNW 20 28 11 15 - - 1.6
18/02:30am 6.0 0.6 4.3 89 0.7 WNW 22 32 12 17 - - 1.6
18/02:00am 6.0 0.2 4.6 91 0.6 WNW 24 32 13 17 - - 1.6
18/01:30am 5.4 0.4 4.4 93 0.4 NW 20 24 11 13 - - 1.6
18/01:00am 5.5 0.1 4.3 92 0.5 NW 22 30 12 16 - - 1.6
18/12:30am 5.5 0.4 4.0 90 0.6 WNW 20 28 11 15 - - 1.6
18/12:00am 6.0 1.1 4.3 89 0.7 WNW 19 32 10 17 - - 1.6
 
Date/Time
EST
Temp
°C
App
Temp
°C
Dew
Point
°C
Rel
Hum
%
Delta-T
°C
Wind Press
QNH
hPa
Press
MSL
hPa
Rain since
9am
mm
Dir  Spd
km/h
Gust
km/h
Spd
kts
Gust
kts
17/11:30pm 6.3 1.4 4.9 91 0.6 WNW 20 28 11 15 - - 1.6
17/11:00pm 6.3 1.5 4.9 91 0.6 NW 19 26 10 14 - - 1.4
17/10:30pm 6.5 2.1 5.0 90 0.7 NW 17 22 9 12 - - 1.4
17/10:00pm 6.5 1.4 4.2 85 1.0 NW 20 30 11 16 - - 1.4
17/09:30pm 7.1 0.9 4.1 81 1.3 WNW 26 33 14 18 - - 1.4
17/09:00pm 7.3 2.4 5.1 86 1.0 WNW 20 32 11 17 - - 1.4
17/08:30pm 6.6 2.3 5.1 90 0.7 NW 17 22 9 12 - - 1.4
17/08:00pm 6.6 2.3 5.1 90 0.7 NNW 17 24 9 13 - - 1.4

Other Formats:

Comma delimited format used in spreadsheet applications
http://www.bom.gov.au/fwo/IDV60801/IDV60801.95835.axf

JavaScript Object Notation format (JSON) in row-major order
http://www.bom.gov.au/fwo/IDV60801/IDV60801.95835.json